sensor_id;sensor_type;location;lat;lon;timestamp;P1;durP1;ratioP1;P2;durP2;ratioP2
18302;SDS011;9277;37.980;23.748;2023-08-30T00:01:56;10.68;;;3.50;;
18302;SDS011;9277;37.980;23.748;2023-08-30T00:04:23;8.32;;;3.78;;
18302;SDS011;9277;37.980;23.748;2023-08-30T00:06:50;14.75;;;4.20;;
18302;SDS011;9277;37.980;23.748;2023-08-30T00:09:16;10.73;;;3.80;;
18302;SDS011;9277;37.980;23.748;2023-08-30T00:11:43;9.00;;;4.05;;
18302;SDS011;9277;37.980;23.748;2023-08-30T00:14:11;6.80;;;4.22;;
18302;SDS011;9277;37.980;23.748;2023-08-30T00:16:38;6.07;;;3.35;;
18302;SDS011;9277;37.980;23.748;2023-08-30T00:19:05;6.70;;;3.63;;
18302;SDS011;9277;37.980;23.748;2023-08-30T00:21:32;11.77;;;3.50;;
18302;SDS011;9277;37.980;23.748;2023-08-30T00:23:59;7.68;;;3.22;;
18302;SDS011;9277;37.980;23.748;2023-08-30T00:26:25;8.15;;;2.90;;
18302;SDS011;9277;37.980;23.748;2023-08-30T00:28:52;6.75;;;3.28;;
18302;SDS011;9277;37.980;23.748;2023-08-30T00:31:20;8.70;;;3.45;;
18302;SDS011;9277;37.980;23.748;2023-08-30T00:33:48;5.72;;;3.10;;
18302;SDS011;9277;37.980;23.748;2023-08-30T00:36:14;6.97;;;2.80;;
18302;SDS011;9277;37.980;23.748;2023-08-30T00:38:42;5.13;;;2.72;;
18302;SDS011;9277;37.980;23.748;2023-08-30T00:41:09;9.63;;;3.30;;
18302;SDS011;9277;37.980;23.748;2023-08-30T00:43:35;6.75;;;3.33;;
18302;SDS011;9277;37.980;23.748;2023-08-30T00:46:02;5.82;;;2.95;;
18302;SDS011;9277;37.980;23.748;2023-08-30T00:48:31;4.63;;;2.70;;
18302;SDS011;9277;37.980;23.748;2023-08-30T00:50:58;5.95;;;3.08;;
18302;SDS011;9277;37.980;23.748;2023-08-30T00:53:24;17.42;;;3.80;;
18302;SDS011;9277;37.980;23.748;2023-08-30T00:55:51;6.65;;;2.92;;
18302;SDS011;9277;37.980;23.748;2023-08-30T00:58:18;5.93;;;2.47;;
18302;SDS011;9277;37.980;23.748;2023-08-30T01:00:44;7.32;;;3.10;;
18302;SDS011;9277;37.980;23.748;2023-08-30T01:03:12;9.20;;;2.97;;
18302;SDS011;9277;37.980;23.748;2023-08-30T01:05:41;3.20;;;2.20;;
18302;SDS011;9277;37.980;23.748;2023-08-30T01:08:08;8.95;;;2.90;;
18302;SDS011;9277;37.980;23.748;2023-08-30T01:10:43;7.20;;;2.83;;
18302;SDS011;9277;37.980;23.748;2023-08-30T01:13:12;10.13;;;3.08;;
18302;SDS011;9277;37.980;23.748;2023-08-30T01:15:42;5.18;;;2.67;;
18302;SDS011;9277;37.980;23.748;2023-08-30T01:18:09;6.80;;;2.90;;
18302;SDS011;9277;37.980;23.748;2023-08-30T01:20:37;11.07;;;3.10;;
18302;SDS011;9277;37.980;23.748;2023-08-30T01:23:07;8.82;;;3.13;;
18302;SDS011;9277;37.980;23.748;2023-08-30T01:25:42;8.80;;;2.70;;
18302;SDS011;9277;37.980;23.748;2023-08-30T01:28:11;9.32;;;2.28;;
18302;SDS011;9277;37.980;23.748;2023-08-30T01:30:39;6.88;;;2.45;;
18302;SDS011;9277;37.980;23.748;2023-08-30T01:33:07;6.85;;;2.63;;
18302;SDS011;9277;37.980;23.748;2023-08-30T01:35:34;7.15;;;2.58;;
18302;SDS011;9277;37.980;23.748;2023-08-30T01:38:02;6.45;;;2.75;;
18302;SDS011;9277;37.980;23.748;2023-08-30T01:40:30;4.13;;;2.30;;
18302;SDS011;9277;37.980;23.748;2023-08-30T01:42:58;14.25;;;2.80;;
18302;SDS011;9277;37.980;23.748;2023-08-30T01:45:26;6.22;;;2.13;;
18302;SDS011;9277;37.980;23.748;2023-08-30T01:47:54;6.10;;;2.40;;
18302;SDS011;9277;37.980;23.748;2023-08-30T01:50:21;7.43;;;2.30;;
18302;SDS011;9277;37.980;23.748;2023-08-30T01:52:47;3.33;;;1.88;;
18302;SDS011;9277;37.980;23.748;2023-08-30T01:55:14;4.57;;;2.35;;
18302;SDS011;9277;37.980;23.748;2023-08-30T01:57:41;6.35;;;2.50;;
18302;SDS011;9277;37.980;23.748;2023-08-30T02:00:08;6.65;;;2.65;;
18302;SDS011;9277;37.980;23.748;2023-08-30T02:02:37;9.32;;;2.40;;
18302;SDS011;9277;37.980;23.748;2023-08-30T02:05:04;6.32;;;2.40;;
18302;SDS011;9277;37.980;23.748;2023-08-30T02:07:33;5.20;;;2.33;;
18302;SDS011;9277;37.980;23.748;2023-08-30T02:10:02;3.50;;;2.17;;
18302;SDS011;9277;37.980;23.748;2023-08-30T02:12:31;5.65;;;2.13;;
18302;SDS011;9277;37.980;23.748;2023-08-30T02:15:00;5.07;;;2.20;;
18302;SDS011;9277;37.980;23.748;2023-08-30T02:17:28;5.38;;;2.47;;
18302;SDS011;9277;37.980;23.748;2023-08-30T02:19:57;5.28;;;2.40;;
18302;SDS011;9277;37.980;23.748;2023-08-30T02:22:24;3.75;;;1.90;;
18302;SDS011;9277;37.980;23.748;2023-08-30T02:24:51;6.97;;;2.25;;
18302;SDS011;9277;37.980;23.748;2023-08-30T02:27:18;10.52;;;2.67;;
18302;SDS011;9277;37.980;23.748;2023-08-30T02:29:45;2.90;;;2.10;;
18302;SDS011;9277;37.980;23.748;2023-08-30T02:32:12;2.30;;;1.90;;
18302;SDS011;9277;37.980;23.748;2023-08-30T02:34:38;3.70;;;2.35;;
18302;SDS011;9277;37.980;23.748;2023-08-30T02:37:06;5.63;;;2.00;;
18302;SDS011;9277;37.980;23.748;2023-08-30T02:39:35;4.50;;;1.90;;
18302;SDS011;9277;37.980;23.748;2023-08-30T02:42:01;3.53;;;1.83;;
18302;SDS011;9277;37.980;23.748;2023-08-30T02:44:28;8.00;;;2.13;;
18302;SDS011;9277;37.980;23.748;2023-08-30T02:46:55;4.93;;;1.92;;
18302;SDS011;9277;37.980;23.748;2023-08-30T02:49:22;5.60;;;1.90;;
18302;SDS011;9277;37.980;23.748;2023-08-30T02:51:49;2.47;;;1.60;;
18302;SDS011;9277;37.980;23.748;2023-08-30T02:54:17;4.65;;;2.15;;
18302;SDS011;9277;37.980;23.748;2023-08-30T02:56:43;3.35;;;1.65;;
18302;SDS011;9277;37.980;23.748;2023-08-30T02:59:10;6.40;;;2.00;;
18302;SDS011;9277;37.980;23.748;2023-08-30T03:01:37;7.03;;;1.83;;
18302;SDS011;9277;37.980;23.748;2023-08-30T03:04:04;5.13;;;1.50;;
18302;SDS011;9277;37.980;23.748;2023-08-30T03:06:32;5.28;;;1.52;;
18302;SDS011;9277;37.980;23.748;2023-08-30T03:08:58;4.38;;;1.70;;
18302;SDS011;9277;37.980;23.748;2023-08-30T03:11:26;9.45;;;1.70;;
18302;SDS011;9277;37.980;23.748;2023-08-30T03:13:53;5.68;;;1.83;;
18302;SDS011;9277;37.980;23.748;2023-08-30T03:16:20;5.78;;;2.20;;
18302;SDS011;9277;37.980;23.748;2023-08-30T03:18:47;4.18;;;1.73;;
18302;SDS011;9277;37.980;23.748;2023-08-30T03:21:14;3.33;;;1.80;;
18302;SDS011;9277;37.980;23.748;2023-08-30T03:23:41;4.65;;;1.85;;
18302;SDS011;9277;37.980;23.748;2023-08-30T03:26:08;4.85;;;1.92;;
18302;SDS011;9277;37.980;23.748;2023-08-30T03:28:36;5.78;;;2.10;;
18302;SDS011;9277;37.980;23.748;2023-08-30T03:31:10;6.28;;;2.03;;
18302;SDS011;9277;37.980;23.748;2023-08-30T03:33:37;10.93;;;1.88;;
18302;SDS011;9277;37.980;23.748;2023-08-30T03:36:04;3.55;;;2.05;;
18302;SDS011;9277;37.980;23.748;2023-08-30T03:38:30;6.70;;;1.75;;
18302;SDS011;9277;37.980;23.748;2023-08-30T03:40:57;6.75;;;2.00;;
18302;SDS011;9277;37.980;23.748;2023-08-30T03:43:24;5.32;;;1.88;;
18302;SDS011;9277;37.980;23.748;2023-08-30T03:45:52;6.25;;;1.27;;
18302;SDS011;9277;37.980;23.748;2023-08-30T03:48:19;9.80;;;1.95;;
18302;SDS011;9277;37.980;23.748;2023-08-30T03:50:45;3.60;;;1.70;;
18302;SDS011;9277;37.980;23.748;2023-08-30T03:53:12;8.00;;;1.83;;
18302;SDS011;9277;37.980;23.748;2023-08-30T03:55:39;3.97;;;1.60;;
18302;SDS011;9277;37.980;23.748;2023-08-30T03:58:06;4.70;;;1.80;;
18302;SDS011;9277;37.980;23.748;2023-08-30T04:00:35;1.48;;;1.38;;
18302;SDS011;9277;37.980;23.748;2023-08-30T04:03:04;4.25;;;2.00;;
18302;SDS011;9277;37.980;23.748;2023-08-30T04:05:32;7.55;;;2.25;;
18302;SDS011;9277;37.980;23.748;2023-08-30T04:07:59;7.90;;;1.55;;
18302;SDS011;9277;37.980;23.748;2023-08-30T04:10:25;3.60;;;1.58;;
18302;SDS011;9277;37.980;23.748;2023-08-30T04:12:52;4.65;;;1.65;;
18302;SDS011;9277;37.980;23.748;2023-08-30T04:15:19;12.00;;;2.03;;
18302;SDS011;9277;37.980;23.748;2023-08-30T04:17:45;5.60;;;1.90;;
18302;SDS011;9277;37.980;23.748;2023-08-30T04:20:14;3.90;;;1.60;;
18302;SDS011;9277;37.980;23.748;2023-08-30T04:22:40;6.07;;;1.65;;
18302;SDS011;9277;37.980;23.748;2023-08-30T04:25:07;4.38;;;1.67;;
18302;SDS011;9277;37.980;23.748;2023-08-30T04:27:35;12.95;;;2.60;;
18302;SDS011;9277;37.980;23.748;2023-08-30T04:30:01;10.65;;;2.25;;
18302;SDS011;9277;37.980;23.748;2023-08-30T04:32:28;14.18;;;2.58;;
18302;SDS011;9277;37.980;23.748;2023-08-30T04:34:55;9.50;;;1.95;;
18302;SDS011;9277;37.980;23.748;2023-08-30T04:37:23;7.32;;;2.20;;
18302;SDS011;9277;37.980;23.748;2023-08-30T04:39:50;6.28;;;1.70;;
18302;SDS011;9277;37.980;23.748;2023-08-30T04:42:17;4.20;;;1.50;;
18302;SDS011;9277;37.980;23.748;2023-08-30T04:44:43;5.07;;;2.13;;
18302;SDS011;9277;37.980;23.748;2023-08-30T04:47:10;9.60;;;2.10;;
18302;SDS011;9277;37.980;23.748;2023-08-30T04:49:37;8.07;;;2.17;;
18302;SDS011;9277;37.980;23.748;2023-08-30T04:52:04;5.72;;;1.85;;
18302;SDS011;9277;37.980;23.748;2023-08-30T04:54:32;5.28;;;2.45;;
18302;SDS011;9277;37.980;23.748;2023-08-30T04:56:59;7.30;;;2.40;;
18302;SDS011;9277;37.980;23.748;2023-08-30T04:59:25;5.88;;;1.80;;
18302;SDS011;9277;37.980;23.748;2023-08-30T05:01:52;7.13;;;1.98;;
18302;SDS011;9277;37.980;23.748;2023-08-30T05:04:19;4.22;;;1.77;;
18302;SDS011;9277;37.980;23.748;2023-08-30T05:06:46;7.85;;;2.10;;
18302;SDS011;9277;37.980;23.748;2023-08-30T05:09:12;3.50;;;1.80;;
18302;SDS011;9277;37.980;23.748;2023-08-30T05:11:41;5.85;;;2.13;;
18302;SDS011;9277;37.980;23.748;2023-08-30T05:14:08;6.57;;;1.77;;
18302;SDS011;9277;37.980;23.748;2023-08-30T05:16:38;4.95;;;2.08;;
18302;SDS011;9277;37.980;23.748;2023-08-30T05:19:04;8.40;;;1.90;;
18302;SDS011;9277;37.980;23.748;2023-08-30T05:21:31;6.85;;;2.17;;
18302;SDS011;9277;37.980;23.748;2023-08-30T05:23:58;6.72;;;2.42;;
18302;SDS011;9277;37.980;23.748;2023-08-30T05:26:24;3.33;;;1.50;;
18302;SDS011;9277;37.980;23.748;2023-08-30T05:28:52;5.10;;;2.10;;
18302;SDS011;9277;37.980;23.748;2023-08-30T05:31:19;7.03;;;1.80;;
18302;SDS011;9277;37.980;23.748;2023-08-30T05:33:46;7.13;;;1.77;;
18302;SDS011;9277;37.980;23.748;2023-08-30T05:36:12;8.65;;;2.53;;
18302;SDS011;9277;37.980;23.748;2023-08-30T05:38:39;7.35;;;2.50;;
18302;SDS011;9277;37.980;23.748;2023-08-30T05:41:07;7.10;;;2.30;;
18302;SDS011;9277;37.980;23.748;2023-08-30T05:43:33;6.97;;;2.22;;
18302;SDS011;9277;37.980;23.748;2023-08-30T05:46:02;9.52;;;2.20;;
18302;SDS011;9277;37.980;23.748;2023-08-30T05:48:28;5.63;;;2.20;;
18302;SDS011;9277;37.980;23.748;2023-08-30T05:50:55;8.70;;;2.45;;
18302;SDS011;9277;37.980;23.748;2023-08-30T05:53:22;9.20;;;2.50;;
18302;SDS011;9277;37.980;23.748;2023-08-30T05:55:49;16.60;;;2.83;;
18302;SDS011;9277;37.980;23.748;2023-08-30T05:58:16;6.35;;;2.38;;
18302;SDS011;9277;37.980;23.748;2023-08-30T06:00:43;9.30;;;2.60;;
18302;SDS011;9277;37.980;23.748;2023-08-30T06:03:11;12.95;;;2.85;;
18302;SDS011;9277;37.980;23.748;2023-08-30T06:05:38;7.95;;;2.63;;
18302;SDS011;9277;37.980;23.748;2023-08-30T06:08:05;17.45;;;3.58;;
18302;SDS011;9277;37.980;23.748;2023-08-30T06:10:33;9.90;;;2.97;;
18302;SDS011;9277;37.980;23.748;2023-08-30T06:12:59;6.55;;;2.40;;
18302;SDS011;9277;37.980;23.748;2023-08-30T06:15:27;7.85;;;2.60;;
18302;SDS011;9277;37.980;23.748;2023-08-30T06:17:54;5.63;;;2.75;;
18302;SDS011;9277;37.980;23.748;2023-08-30T06:20:22;7.47;;;2.63;;
18302;SDS011;9277;37.980;23.748;2023-08-30T06:22:49;6.18;;;2.40;;
18302;SDS011;9277;37.980;23.748;2023-08-30T06:25:16;8.68;;;2.20;;
18302;SDS011;9277;37.980;23.748;2023-08-30T06:27:43;7.30;;;2.63;;
18302;SDS011;9277;37.980;23.748;2023-08-30T06:30:10;6.47;;;2.30;;
18302;SDS011;9277;37.980;23.748;2023-08-30T06:32:36;7.05;;;2.55;;
18302;SDS011;9277;37.980;23.748;2023-08-30T06:35:03;9.07;;;2.38;;
18302;SDS011;9277;37.980;23.748;2023-08-30T06:37:32;5.68;;;2.33;;
18302;SDS011;9277;37.980;23.748;2023-08-30T06:39:59;5.90;;;2.22;;
18302;SDS011;9277;37.980;23.748;2023-08-30T06:42:26;5.00;;;2.80;;
18302;SDS011;9277;37.980;23.748;2023-08-30T06:44:53;7.10;;;2.85;;
18302;SDS011;9277;37.980;23.748;2023-08-30T06:47:19;7.80;;;3.35;;
18302;SDS011;9277;37.980;23.748;2023-08-30T06:49:46;5.53;;;2.33;;
18302;SDS011;9277;37.980;23.748;2023-08-30T06:52:13;6.28;;;2.25;;
18302;SDS011;9277;37.980;23.748;2023-08-30T06:54:41;7.38;;;3.03;;
18302;SDS011;9277;37.980;23.748;2023-08-30T06:57:08;10.05;;;3.03;;
18302;SDS011;9277;37.980;23.748;2023-08-30T06:59:34;5.65;;;2.85;;
18302;SDS011;9277;37.980;23.748;2023-08-30T07:02:01;6.65;;;2.70;;
18302;SDS011;9277;37.980;23.748;2023-08-30T07:04:28;9.85;;;3.10;;
18302;SDS011;9277;37.980;23.748;2023-08-30T07:06:55;6.15;;;2.47;;
18302;SDS011;9277;37.980;23.748;2023-08-30T07:09:22;7.10;;;2.42;;
18302;SDS011;9277;37.980;23.748;2023-08-30T07:11:55;5.90;;;2.58;;
18302;SDS011;9277;37.980;23.748;2023-08-30T07:14:22;8.32;;;2.75;;
18302;SDS011;9277;37.980;23.748;2023-08-30T07:16:48;7.47;;;2.40;;
18302;SDS011;9277;37.980;23.748;2023-08-30T07:19:15;6.70;;;3.15;;
18302;SDS011;9277;37.980;23.748;2023-08-30T07:21:42;4.88;;;2.20;;
18302;SDS011;9277;37.980;23.748;2023-08-30T07:24:09;6.05;;;2.22;;
18302;SDS011;9277;37.980;23.748;2023-08-30T07:26:35;6.82;;;2.38;;
18302;SDS011;9277;37.980;23.748;2023-08-30T07:29:04;3.42;;;2.50;;
18302;SDS011;9277;37.980;23.748;2023-08-30T07:31:31;4.32;;;1.77;;
18302;SDS011;9277;37.980;23.748;2023-08-30T07:33:58;8.60;;;2.17;;
18302;SDS011;9277;37.980;23.748;2023-08-30T07:36:25;7.90;;;2.30;;
18302;SDS011;9277;37.980;23.748;2023-08-30T07:38:52;5.53;;;1.80;;
18302;SDS011;9277;37.980;23.748;2023-08-30T07:41:18;5.65;;;2.42;;
18302;SDS011;9277;37.980;23.748;2023-08-30T07:43:45;3.42;;;2.25;;
18302;SDS011;9277;37.980;23.748;2023-08-30T07:46:13;6.63;;;2.22;;
18302;SDS011;9277;37.980;23.748;2023-08-30T07:48:40;8.77;;;2.50;;
18302;SDS011;9277;37.980;23.748;2023-08-30T07:51:07;5.20;;;2.00;;
18302;SDS011;9277;37.980;23.748;2023-08-30T07:53:33;5.45;;;2.30;;
18302;SDS011;9277;37.980;23.748;2023-08-30T07:56:00;9.55;;;2.30;;
18302;SDS011;9277;37.980;23.748;2023-08-30T07:58:27;5.28;;;2.30;;
18302;SDS011;9277;37.980;23.748;2023-08-30T08:00:54;7.05;;;2.67;;
18302;SDS011;9277;37.980;23.748;2023-08-30T08:03:22;4.25;;;1.77;;
18302;SDS011;9277;37.980;23.748;2023-08-30T08:05:48;2.92;;;1.88;;
18302;SDS011;9277;37.980;23.748;2023-08-30T08:08:15;4.88;;;1.83;;
18302;SDS011;9277;37.980;23.748;2023-08-30T08:10:43;13.52;;;2.80;;
18302;SDS011;9277;37.980;23.748;2023-08-30T08:13:10;8.07;;;2.72;;
18302;SDS011;9277;37.980;23.748;2023-08-30T08:15:38;7.38;;;2.22;;
18302;SDS011;9277;37.980;23.748;2023-08-30T08:18:04;9.30;;;2.08;;
18302;SDS011;9277;37.980;23.748;2023-08-30T08:20:33;4.43;;;2.10;;
18302;SDS011;9277;37.980;23.748;2023-08-30T08:23:00;10.52;;;2.60;;
18302;SDS011;9277;37.980;23.748;2023-08-30T08:25:27;5.15;;;2.25;;
18302;SDS011;9277;37.980;23.748;2023-08-30T08:27:54;6.20;;;1.85;;
18302;SDS011;9277;37.980;23.748;2023-08-30T08:30:21;4.03;;;2.05;;
18302;SDS011;9277;37.980;23.748;2023-08-30T08:32:47;8.02;;;2.13;;
18302;SDS011;9277;37.980;23.748;2023-08-30T08:35:14;5.47;;;2.28;;
18302;SDS011;9277;37.980;23.748;2023-08-30T08:37:43;8.10;;;2.13;;
18302;SDS011;9277;37.980;23.748;2023-08-30T08:40:09;6.53;;;1.80;;
18302;SDS011;9277;37.980;23.748;2023-08-30T08:42:36;4.22;;;1.77;;
18302;SDS011;9277;37.980;23.748;2023-08-30T08:45:03;5.22;;;2.15;;
18302;SDS011;9277;37.980;23.748;2023-08-30T08:47:30;7.75;;;1.98;;
18302;SDS011;9277;37.980;23.748;2023-08-30T08:49:57;8.70;;;2.83;;
18302;SDS011;9277;37.980;23.748;2023-08-30T08:52:24;7.60;;;2.38;;
18302;SDS011;9277;37.980;23.748;2023-08-30T08:54:52;2.90;;;1.80;;
18302;SDS011;9277;37.980;23.748;2023-08-30T08:57:20;10.15;;;2.92;;
18302;SDS011;9277;37.980;23.748;2023-08-30T08:59:47;4.35;;;2.10;;
18302;SDS011;9277;37.980;23.748;2023-08-30T09:02:15;6.25;;;2.15;;
18302;SDS011;9277;37.980;23.748;2023-08-30T09:04:42;6.55;;;1.58;;
18302;SDS011;9277;37.980;23.748;2023-08-30T09:07:09;1.70;;;1.58;;
18302;SDS011;9277;37.980;23.748;2023-08-30T09:09:36;5.40;;;1.70;;
18302;SDS011;9277;37.980;23.748;2023-08-30T09:12:04;5.93;;;2.00;;
18302;SDS011;9277;37.980;23.748;2023-08-30T09:14:31;3.53;;;1.80;;
18302;SDS011;9277;37.980;23.748;2023-08-30T09:16:58;3.88;;;1.80;;
18302;SDS011;9277;37.980;23.748;2023-08-30T09:19:25;4.30;;;1.90;;
18302;SDS011;9277;37.980;23.748;2023-08-30T09:21:52;3.92;;;1.90;;
18302;SDS011;9277;37.980;23.748;2023-08-30T09:24:19;3.85;;;2.10;;
18302;SDS011;9277;37.980;23.748;2023-08-30T09:26:47;6.22;;;1.98;;
18302;SDS011;9277;37.980;23.748;2023-08-30T09:29:16;3.65;;;1.65;;
18302;SDS011;9277;37.980;23.748;2023-08-30T09:31:42;3.45;;;1.98;;
18302;SDS011;9277;37.980;23.748;2023-08-30T09:34:10;4.10;;;1.90;;
18302;SDS011;9277;37.980;23.748;2023-08-30T09:36:37;5.70;;;1.80;;
18302;SDS011;9277;37.980;23.748;2023-08-30T09:39:04;2.83;;;2.33;;
18302;SDS011;9277;37.980;23.748;2023-08-30T09:41:31;3.22;;;1.50;;
18302;SDS011;9277;37.980;23.748;2023-08-30T09:43:59;4.00;;;2.05;;
18302;SDS011;9277;37.980;23.748;2023-08-30T09:46:27;5.07;;;1.75;;
18302;SDS011;9277;37.980;23.748;2023-08-30T09:48:54;7.07;;;2.00;;
18302;SDS011;9277;37.980;23.748;2023-08-30T09:51:21;7.80;;;2.25;;
18302;SDS011;9277;37.980;23.748;2023-08-30T09:53:53;4.13;;;2.33;;
18302;SDS011;9277;37.980;23.748;2023-08-30T09:56:23;4.47;;;1.80;;
18302;SDS011;9277;37.980;23.748;2023-08-30T09:58:50;5.68;;;2.10;;
18302;SDS011;9277;37.980;23.748;2023-08-30T10:01:17;2.42;;;1.88;;
18302;SDS011;9277;37.980;23.748;2023-08-30T10:03:46;10.45;;;2.67;;
18302;SDS011;9277;37.980;23.748;2023-08-30T10:06:14;6.88;;;2.08;;
18302;SDS011;9277;37.980;23.748;2023-08-30T10:08:42;2.80;;;1.58;;
18302;SDS011;9277;37.980;23.748;2023-08-30T10:11:12;6.57;;;2.08;;
18302;SDS011;9277;37.980;23.748;2023-08-30T10:13:40;3.80;;;1.92;;
18302;SDS011;9277;37.980;23.748;2023-08-30T10:16:08;4.35;;;2.20;;
18302;SDS011;9277;37.980;23.748;2023-08-30T10:18:38;5.78;;;2.28;;
18302;SDS011;9277;37.980;23.748;2023-08-30T10:21:07;5.75;;;3.05;;
18302;SDS011;9277;37.980;23.748;2023-08-30T10:23:38;6.40;;;1.90;;
18302;SDS011;9277;37.980;23.748;2023-08-30T10:26:06;3.85;;;1.65;;
18302;SDS011;9277;37.980;23.748;2023-08-30T10:28:34;4.55;;;2.30;;
18302;SDS011;9277;37.980;23.748;2023-08-30T10:31:01;9.80;;;2.78;;
18302;SDS011;9277;37.980;23.748;2023-08-30T10:33:28;6.30;;;2.50;;
18302;SDS011;9277;37.980;23.748;2023-08-30T10:36:02;7.80;;;2.92;;
18302;SDS011;9277;37.980;23.748;2023-08-30T10:38:32;8.50;;;2.90;;
18302;SDS011;9277;37.980;23.748;2023-08-30T10:41:06;4.97;;;3.22;;
18302;SDS011;9277;37.980;23.748;2023-08-30T10:43:33;7.32;;;2.95;;
18302;SDS011;9277;37.980;23.748;2023-08-30T10:46:01;3.88;;;2.88;;
18302;SDS011;9277;37.980;23.748;2023-08-30T10:48:33;7.53;;;3.67;;
18302;SDS011;9277;37.980;23.748;2023-08-30T10:51:00;7.93;;;3.05;;
18302;SDS011;9277;37.980;23.748;2023-08-30T10:53:31;5.45;;;3.30;;
18302;SDS011;9277;37.980;23.748;2023-08-30T10:56:07;9.20;;;3.80;;
18302;SDS011;9277;37.980;23.748;2023-08-30T10:58:39;8.57;;;3.65;;
18302;SDS011;9277;37.980;23.748;2023-08-30T11:01:05;7.72;;;3.92;;
18302;SDS011;9277;37.980;23.748;2023-08-30T11:03:33;7.22;;;3.28;;
18302;SDS011;9277;37.980;23.748;2023-08-30T11:06:00;4.53;;;3.17;;
18302;SDS011;9277;37.980;23.748;2023-08-30T11:08:28;5.70;;;3.58;;
18302;SDS011;9277;37.980;23.748;2023-08-30T11:11:01;5.45;;;3.22;;
18302;SDS011;9277;37.980;23.748;2023-08-30T11:13:29;8.20;;;3.28;;
18302;SDS011;9277;37.980;23.748;2023-08-30T11:15:59;7.38;;;4.15;;
18302;SDS011;9277;37.980;23.748;2023-08-30T11:18:26;7.07;;;3.72;;
18302;SDS011;9277;37.980;23.748;2023-08-30T11:20:53;4.53;;;3.40;;
18302;SDS011;9277;37.980;23.748;2023-08-30T11:23:20;4.30;;;2.78;;
18302;SDS011;9277;37.980;23.748;2023-08-30T11:25:49;5.28;;;3.22;;
18302;SDS011;9277;37.980;23.748;2023-08-30T11:28:22;11.85;;;3.55;;
18302;SDS011;9277;37.980;23.748;2023-08-30T11:30:49;5.22;;;3.05;;
18302;SDS011;9277;37.980;23.748;2023-08-30T11:33:17;9.90;;;3.25;;
18302;SDS011;9277;37.980;23.748;2023-08-30T11:35:44;5.50;;;2.83;;
18302;SDS011;9277;37.980;23.748;2023-08-30T11:38:12;9.45;;;3.70;;
18302;SDS011;9277;37.980;23.748;2023-08-30T11:40:39;4.85;;;3.42;;
18302;SDS011;9277;37.980;23.748;2023-08-30T11:43:06;3.92;;;3.15;;
18302;SDS011;9277;37.980;23.748;2023-08-30T11:45:35;5.43;;;2.90;;
18302;SDS011;9277;37.980;23.748;2023-08-30T11:48:02;3.45;;;2.58;;
18302;SDS011;9277;37.980;23.748;2023-08-30T11:50:29;7.32;;;3.50;;
18302;SDS011;9277;37.980;23.748;2023-08-30T11:52:56;5.05;;;3.40;;
18302;SDS011;9277;37.980;23.748;2023-08-30T11:55:23;8.52;;;3.40;;
18302;SDS011;9277;37.980;23.748;2023-08-30T11:57:52;4.40;;;3.03;;
18302;SDS011;9277;37.980;23.748;2023-08-30T12:00:19;3.05;;;2.42;;
18302;SDS011;9277;37.980;23.748;2023-08-30T12:02:47;4.65;;;2.50;;
18302;SDS011;9277;37.980;23.748;2023-08-30T12:05:14;5.35;;;3.10;;
18302;SDS011;9277;37.980;23.748;2023-08-30T12:07:42;5.63;;;2.95;;
18302;SDS011;9277;37.980;23.748;2023-08-30T12:10:09;4.38;;;2.50;;
18302;SDS011;9277;37.980;23.748;2023-08-30T12:12:36;3.88;;;1.98;;
18302;SDS011;9277;37.980;23.748;2023-08-30T12:15:07;8.80;;;2.90;;
18302;SDS011;9277;37.980;23.748;2023-08-30T12:17:34;6.65;;;2.72;;
18302;SDS011;9277;37.980;23.748;2023-08-30T12:20:03;5.00;;;2.75;;
18302;SDS011;9277;37.980;23.748;2023-08-30T12:22:39;4.68;;;2.83;;
18302;SDS011;9277;37.980;23.748;2023-08-30T12:25:15;3.38;;;2.40;;
18302;SDS011;9277;37.980;23.748;2023-08-30T12:27:42;12.38;;;2.30;;
18302;SDS011;9277;37.980;23.748;2023-08-30T12:30:09;3.33;;;2.63;;
18302;SDS011;9277;37.980;23.748;2023-08-30T12:32:35;5.28;;;2.60;;
18302;SDS011;9277;37.980;23.748;2023-08-30T12:35:04;9.18;;;2.80;;
18302;SDS011;9277;37.980;23.748;2023-08-30T12:37:31;4.10;;;2.63;;
18302;SDS011;9277;37.980;23.748;2023-08-30T12:39:58;5.72;;;2.60;;
18302;SDS011;9277;37.980;23.748;2023-08-30T12:42:25;5.00;;;2.65;;
18302;SDS011;9277;37.980;23.748;2023-08-30T12:44:51;4.28;;;2.25;;
18302;SDS011;9277;37.980;23.748;2023-08-30T12:47:18;4.15;;;2.35;;
18302;SDS011;9277;37.980;23.748;2023-08-30T12:49:46;3.70;;;1.98;;
18302;SDS011;9277;37.980;23.748;2023-08-30T12:52:14;3.15;;;2.13;;
18302;SDS011;9277;37.980;23.748;2023-08-30T12:54:41;5.03;;;2.67;;
18302;SDS011;9277;37.980;23.748;2023-08-30T12:57:08;6.10;;;2.80;;
18302;SDS011;9277;37.980;23.748;2023-08-30T12:59:35;5.20;;;2.38;;
18302;SDS011;9277;37.980;23.748;2023-08-30T13:02:02;2.40;;;2.03;;
18302;SDS011;9277;37.980;23.748;2023-08-30T13:04:29;9.32;;;2.13;;
18302;SDS011;9277;37.980;23.748;2023-08-30T13:06:55;2.58;;;1.90;;
18302;SDS011;9277;37.980;23.748;2023-08-30T13:09:23;6.55;;;2.40;;
18302;SDS011;9277;37.980;23.748;2023-08-30T13:11:50;4.20;;;2.15;;
18302;SDS011;9277;37.980;23.748;2023-08-30T13:14:17;4.07;;;1.92;;
18302;SDS011;9277;37.980;23.748;2023-08-30T13:16:44;1.90;;;1.80;;
18302;SDS011;9277;37.980;23.748;2023-08-30T13:19:10;6.32;;;2.80;;
18302;SDS011;9277;37.980;23.748;2023-08-30T13:21:37;4.53;;;2.40;;
18302;SDS011;9277;37.980;23.748;2023-08-30T13:24:05;2.40;;;2.20;;
18302;SDS011;9277;37.980;23.748;2023-08-30T13:26:33;4.95;;;2.42;;
18302;SDS011;9277;37.980;23.748;2023-08-30T13:29:00;4.90;;;2.10;;
18302;SDS011;9277;37.980;23.748;2023-08-30T13:31:27;5.15;;;2.17;;
18302;SDS011;9277;37.980;23.748;2023-08-30T13:33:54;3.38;;;1.92;;
18302;SDS011;9277;37.980;23.748;2023-08-30T13:36:21;3.70;;;1.77;;
18302;SDS011;9277;37.980;23.748;2023-08-30T13:38:48;6.22;;;2.25;;
18302;SDS011;9277;37.980;23.748;2023-08-30T13:41:14;3.75;;;2.40;;
18302;SDS011;9277;37.980;23.748;2023-08-30T13:43:42;3.65;;;2.30;;
18302;SDS011;9277;37.980;23.748;2023-08-30T13:46:09;3.88;;;2.28;;
18302;SDS011;9277;37.980;23.748;2023-08-30T13:48:36;4.43;;;2.40;;
18302;SDS011;9277;37.980;23.748;2023-08-30T13:51:03;3.97;;;2.13;;
18302;SDS011;9277;37.980;23.748;2023-08-30T13:53:30;4.10;;;2.38;;
18302;SDS011;9277;37.980;23.748;2023-08-30T13:55:56;4.30;;;2.38;;
18302;SDS011;9277;37.980;23.748;2023-08-30T13:58:23;2.83;;;2.00;;
18302;SDS011;9277;37.980;23.748;2023-08-30T14:00:51;5.68;;;2.33;;
18302;SDS011;9277;37.980;23.748;2023-08-30T14:03:18;4.20;;;2.50;;
18302;SDS011;9277;37.980;23.748;2023-08-30T14:05:45;3.42;;;2.67;;
18302;SDS011;9277;37.980;23.748;2023-08-30T14:08:11;2.95;;;2.22;;
18302;SDS011;9277;37.980;23.748;2023-08-30T14:10:38;11.60;;;3.15;;
18302;SDS011;9277;37.980;23.748;2023-08-30T14:13:05;5.13;;;2.35;;
18302;SDS011;9277;37.980;23.748;2023-08-30T14:15:32;3.47;;;2.28;;
18302;SDS011;9277;37.980;23.748;2023-08-30T14:18:00;4.55;;;2.60;;
18302;SDS011;9277;37.980;23.748;2023-08-30T14:20:27;3.25;;;2.20;;
18302;SDS011;9277;37.980;23.748;2023-08-30T14:22:54;4.57;;;2.65;;
18302;SDS011;9277;37.980;23.748;2023-08-30T14:25:21;9.27;;;2.78;;
18302;SDS011;9277;37.980;23.748;2023-08-30T14:27:48;4.10;;;2.20;;
18302;SDS011;9277;37.980;23.748;2023-08-30T14:30:14;4.50;;;2.35;;
18302;SDS011;9277;37.980;23.748;2023-08-30T14:32:41;3.90;;;2.60;;
18302;SDS011;9277;37.980;23.748;2023-08-30T14:35:10;5.10;;;2.90;;
18302;SDS011;9277;37.980;23.748;2023-08-30T14:37:37;3.95;;;2.78;;
18302;SDS011;9277;37.980;23.748;2023-08-30T14:40:05;6.43;;;2.60;;
18302;SDS011;9277;37.980;23.748;2023-08-30T14:42:32;4.72;;;2.60;;
18302;SDS011;9277;37.980;23.748;2023-08-30T14:44:59;2.60;;;2.40;;
18302;SDS011;9277;37.980;23.748;2023-08-30T14:47:26;3.53;;;2.25;;
18302;SDS011;9277;37.980;23.748;2023-08-30T14:49:55;2.55;;;2.00;;